sensor_id;sensor_type;location;lat;lon;timestamp;P1;durP1;ratioP1;P2;durP2;ratioP2
4909;SDS011;2470;49.868;8.660;2022-11-13T00:00:28;11.37;;;6.87;;
4909;SDS011;2470;49.868;8.660;2022-11-13T00:02:54;9.03;;;5.93;;
4909;SDS011;2470;49.868;8.660;2022-11-13T00:05:19;10.80;;;7.40;;
4909;SDS011;2470;49.868;8.660;2022-11-13T00:07:45;14.03;;;7.40;;
4909;SDS011;2470;49.868;8.660;2022-11-13T00:10:10;14.00;;;7.17;;
4909;SDS011;2470;49.868;8.660;2022-11-13T00:12:36;10.90;;;7.00;;
4909;SDS011;2470;49.868;8.660;2022-11-13T00:15:01;11.17;;;7.57;;
4909;SDS011;2470;49.868;8.660;2022-11-13T00:17:27;9.70;;;6.20;;
4909;SDS011;2470;49.868;8.660;2022-11-13T00:19:53;12.47;;;6.80;;
4909;SDS011;2470;49.868;8.660;2022-11-13T00:22:19;12.43;;;8.03;;
4909;SDS011;2470;49.868;8.660;2022-11-13T00:24:44;10.87;;;6.40;;
4909;SDS011;2470;49.868;8.660;2022-11-13T00:27:10;9.67;;;6.47;;
4909;SDS011;2470;49.868;8.660;2022-11-13T00:29:36;10.70;;;7.07;;
4909;SDS011;2470;49.868;8.660;2022-11-13T00:32:01;8.77;;;5.70;;
4909;SDS011;2470;49.868;8.660;2022-11-13T00:34:27;11.80;;;7.17;;
4909;SDS011;2470;49.868;8.660;2022-11-13T00:36:52;10.57;;;6.60;;
4909;SDS011;2470;49.868;8.660;2022-11-13T00:39:18;11.97;;;6.87;;
4909;SDS011;2470;49.868;8.660;2022-11-13T00:41:43;11.13;;;6.53;;
4909;SDS011;2470;49.868;8.660;2022-11-13T00:44:09;16.30;;;6.97;;
4909;SDS011;2470;49.868;8.660;2022-11-13T00:46:35;8.67;;;5.40;;
4909;SDS011;2470;49.868;8.660;2022-11-13T00:49:00;12.33;;;5.17;;
4909;SDS011;2470;49.868;8.660;2022-11-13T00:51:26;9.37;;;5.93;;
4909;SDS011;2470;49.868;8.660;2022-11-13T00:53:51;11.17;;;7.00;;
4909;SDS011;2470;49.868;8.660;2022-11-13T00:56:17;10.33;;;6.70;;
4909;SDS011;2470;49.868;8.660;2022-11-13T00:58:42;13.30;;;7.10;;
4909;SDS011;2470;49.868;8.660;2022-11-13T01:01:09;10.93;;;7.50;;
4909;SDS011;2470;49.868;8.660;2022-11-13T01:03:37;11.03;;;6.57;;
4909;SDS011;2470;49.868;8.660;2022-11-13T01:08:58;7.67;;;6.20;;
4909;SDS011;2470;49.868;8.660;2022-11-13T01:11:24;13.77;;;7.00;;
4909;SDS011;2470;49.868;8.660;2022-11-13T01:13:51;14.03;;;8.20;;
4909;SDS011;2470;49.868;8.660;2022-11-13T01:16:18;10.83;;;6.17;;
4909;SDS011;2470;49.868;8.660;2022-11-13T01:18:47;11.97;;;7.63;;
4909;SDS011;2470;49.868;8.660;2022-11-13T01:21:14;9.10;;;6.30;;
4909;SDS011;2470;49.868;8.660;2022-11-13T01:23:41;13.93;;;7.47;;
4909;SDS011;2470;49.868;8.660;2022-11-13T01:28:41;11.33;;;6.17;;
4909;SDS011;2470;49.868;8.660;2022-11-13T01:31:09;10.27;;;6.73;;
4909;SDS011;2470;49.868;8.660;2022-11-13T01:33:37;15.07;;;6.97;;
4909;SDS011;2470;49.868;8.660;2022-11-13T01:36:03;13.77;;;6.70;;
4909;SDS011;2470;49.868;8.660;2022-11-13T01:38:37;11.13;;;6.57;;
4909;SDS011;2470;49.868;8.660;2022-11-13T01:41:03;10.77;;;6.40;;
4909;SDS011;2470;49.868;8.660;2022-11-13T01:43:31;10.57;;;7.17;;
4909;SDS011;2470;49.868;8.660;2022-11-13T01:46:06;11.27;;;6.40;;
4909;SDS011;2470;49.868;8.660;2022-11-13T01:48:41;11.90;;;6.50;;
4909;SDS011;2470;49.868;8.660;2022-11-13T01:51:13;12.40;;;6.17;;
4909;SDS011;2470;49.868;8.660;2022-11-13T01:53:47;11.53;;;6.60;;
4909;SDS011;2470;49.868;8.660;2022-11-13T01:56:14;11.57;;;7.33;;
4909;SDS011;2470;49.868;8.660;2022-11-13T01:58:41;11.93;;;5.90;;
4909;SDS011;2470;49.868;8.660;2022-11-13T02:01:09;7.63;;;6.07;;
4909;SDS011;2470;49.868;8.660;2022-11-13T02:03:35;11.30;;;7.03;;
4909;SDS011;2470;49.868;8.660;2022-11-13T02:06:00;8.70;;;5.77;;
4909;SDS011;2470;49.868;8.660;2022-11-13T02:08:26;13.13;;;7.53;;
4909;SDS011;2470;49.868;8.660;2022-11-13T02:10:52;13.87;;;7.30;;
4909;SDS011;2470;49.868;8.660;2022-11-13T02:13:18;13.67;;;7.37;;
4909;SDS011;2470;49.868;8.660;2022-11-13T02:15:45;13.83;;;6.53;;
4909;SDS011;2470;49.868;8.660;2022-11-13T02:18:11;20.63;;;7.07;;
4909;SDS011;2470;49.868;8.660;2022-11-13T02:20:48;11.70;;;6.97;;
4909;SDS011;2470;49.868;8.660;2022-11-13T02:23:30;10.90;;;6.27;;
4909;SDS011;2470;49.868;8.660;2022-11-13T02:26:12;12.07;;;6.17;;
4909;SDS011;2470;49.868;8.660;2022-11-13T02:28:37;8.43;;;5.40;;
4909;SDS011;2470;49.868;8.660;2022-11-13T02:31:10;13.50;;;6.97;;
4909;SDS011;2470;49.868;8.660;2022-11-13T02:33:37;12.37;;;6.53;;
4909;SDS011;2470;49.868;8.660;2022-11-13T02:36:03;11.17;;;6.20;;
4909;SDS011;2470;49.868;8.660;2022-11-13T02:38:31;6.90;;;5.37;;
4909;SDS011;2470;49.868;8.660;2022-11-13T02:40:58;11.67;;;7.30;;
4909;SDS011;2470;49.868;8.660;2022-11-13T02:43:24;11.20;;;5.47;;
4909;SDS011;2470;49.868;8.660;2022-11-13T02:45:50;16.93;;;6.93;;
4909;SDS011;2470;49.868;8.660;2022-11-13T02:48:15;8.60;;;6.03;;
4909;SDS011;2470;49.868;8.660;2022-11-13T02:50:41;8.13;;;5.37;;
4909;SDS011;2470;49.868;8.660;2022-11-13T02:53:07;10.17;;;5.60;;
4909;SDS011;2470;49.868;8.660;2022-11-13T02:55:33;9.10;;;4.80;;
4909;SDS011;2470;49.868;8.660;2022-11-13T02:57:58;9.50;;;5.80;;
4909;SDS011;2470;49.868;8.660;2022-11-13T03:00:24;9.43;;;5.90;;
4909;SDS011;2470;49.868;8.660;2022-11-13T03:02:49;11.90;;;5.80;;
4909;SDS011;2470;49.868;8.660;2022-11-13T03:05:15;9.30;;;5.70;;
4909;SDS011;2470;49.868;8.660;2022-11-13T03:07:41;9.50;;;6.00;;
4909;SDS011;2470;49.868;8.660;2022-11-13T03:10:07;10.03;;;5.67;;
4909;SDS011;2470;49.868;8.660;2022-11-13T03:12:34;12.40;;;6.43;;
4909;SDS011;2470;49.868;8.660;2022-11-13T03:14:59;9.90;;;6.07;;
4909;SDS011;2470;49.868;8.660;2022-11-13T03:17:25;12.17;;;6.43;;
4909;SDS011;2470;49.868;8.660;2022-11-13T03:19:50;7.83;;;5.27;;
4909;SDS011;2470;49.868;8.660;2022-11-13T03:22:16;8.47;;;5.60;;
4909;SDS011;2470;49.868;8.660;2022-11-13T03:24:41;12.17;;;6.63;;
4909;SDS011;2470;49.868;8.660;2022-11-13T03:27:07;8.43;;;5.50;;
4909;SDS011;2470;49.868;8.660;2022-11-13T03:29:33;7.73;;;5.10;;
4909;SDS011;2470;49.868;8.660;2022-11-13T03:31:58;8.97;;;5.97;;
4909;SDS011;2470;49.868;8.660;2022-11-13T03:34:24;9.77;;;5.77;;
4909;SDS011;2470;49.868;8.660;2022-11-13T03:36:49;7.57;;;4.67;;
4909;SDS011;2470;49.868;8.660;2022-11-13T03:39:15;11.37;;;6.53;;
4909;SDS011;2470;49.868;8.660;2022-11-13T03:41:41;9.43;;;5.50;;
4909;SDS011;2470;49.868;8.660;2022-11-13T03:44:06;5.30;;;4.43;;
4909;SDS011;2470;49.868;8.660;2022-11-13T03:46:32;11.07;;;6.10;;
4909;SDS011;2470;49.868;8.660;2022-11-13T03:48:57;7.83;;;5.03;;
4909;SDS011;2470;49.868;8.660;2022-11-13T03:51:23;7.37;;;4.70;;
4909;SDS011;2470;49.868;8.660;2022-11-13T03:53:48;5.60;;;4.27;;
4909;SDS011;2470;49.868;8.660;2022-11-13T03:56:14;11.07;;;5.30;;
4909;SDS011;2470;49.868;8.660;2022-11-13T03:58:40;6.60;;;4.90;;
4909;SDS011;2470;49.868;8.660;2022-11-13T04:01:05;6.30;;;4.87;;
4909;SDS011;2470;49.868;8.660;2022-11-13T04:03:31;7.50;;;4.70;;
4909;SDS011;2470;49.868;8.660;2022-11-13T04:05:56;8.53;;;5.00;;
4909;SDS011;2470;49.868;8.660;2022-11-13T04:08:22;6.67;;;4.40;;
4909;SDS011;2470;49.868;8.660;2022-11-13T04:10:47;9.10;;;6.23;;
4909;SDS011;2470;49.868;8.660;2022-11-13T04:13:13;10.93;;;5.20;;
4909;SDS011;2470;49.868;8.660;2022-11-13T04:15:38;7.40;;;4.57;;
4909;SDS011;2470;49.868;8.660;2022-11-13T04:18:04;9.50;;;5.67;;
4909;SDS011;2470;49.868;8.660;2022-11-13T04:20:29;7.27;;;5.10;;
4909;SDS011;2470;49.868;8.660;2022-11-13T04:22:56;11.73;;;5.43;;
4909;SDS011;2470;49.868;8.660;2022-11-13T04:25:21;10.93;;;5.57;;
4909;SDS011;2470;49.868;8.660;2022-11-13T04:27:48;7.23;;;4.13;;
4909;SDS011;2470;49.868;8.660;2022-11-13T04:30:14;4.93;;;3.93;;
4909;SDS011;2470;49.868;8.660;2022-11-13T04:32:40;4.93;;;3.97;;
4909;SDS011;2470;49.868;8.660;2022-11-13T04:35:05;7.80;;;4.63;;
4909;SDS011;2470;49.868;8.660;2022-11-13T04:37:31;11.37;;;5.50;;
4909;SDS011;2470;49.868;8.660;2022-11-13T04:39:57;4.97;;;3.57;;
4909;SDS011;2470;49.868;8.660;2022-11-13T04:42:22;7.40;;;4.80;;
4909;SDS011;2470;49.868;8.660;2022-11-13T04:45:07;6.27;;;4.60;;
4909;SDS011;2470;49.868;8.660;2022-11-13T04:47:32;6.07;;;4.60;;
4909;SDS011;2470;49.868;8.660;2022-11-13T04:49:58;6.20;;;3.67;;
4909;SDS011;2470;49.868;8.660;2022-11-13T04:52:24;6.20;;;4.50;;
4909;SDS011;2470;49.868;8.660;2022-11-13T04:54:49;7.00;;;4.40;;
4909;SDS011;2470;49.868;8.660;2022-11-13T04:57:15;9.80;;;4.67;;
4909;SDS011;2470;49.868;8.660;2022-11-13T04:59:40;7.50;;;4.73;;
4909;SDS011;2470;49.868;8.660;2022-11-13T05:02:06;8.27;;;5.10;;
4909;SDS011;2470;49.868;8.660;2022-11-13T05:04:31;6.20;;;4.60;;
4909;SDS011;2470;49.868;8.660;2022-11-13T05:06:57;12.83;;;5.47;;
4909;SDS011;2470;49.868;8.660;2022-11-13T05:09:23;8.70;;;4.47;;
4909;SDS011;2470;49.868;8.660;2022-11-13T05:11:48;8.30;;;5.50;;
4909;SDS011;2470;49.868;8.660;2022-11-13T05:14:14;6.33;;;4.40;;
4909;SDS011;2470;49.868;8.660;2022-11-13T05:16:39;7.83;;;3.70;;
4909;SDS011;2470;49.868;8.660;2022-11-13T05:19:05;8.40;;;5.37;;
4909;SDS011;2470;49.868;8.660;2022-11-13T05:21:34;8.23;;;4.70;;
4909;SDS011;2470;49.868;8.660;2022-11-13T05:24:01;7.10;;;5.30;;
4909;SDS011;2470;49.868;8.660;2022-11-13T05:26:27;8.50;;;4.57;;
4909;SDS011;2470;49.868;8.660;2022-11-13T05:28:55;8.67;;;4.67;;
4909;SDS011;2470;49.868;8.660;2022-11-13T05:31:22;9.37;;;5.30;;
4909;SDS011;2470;49.868;8.660;2022-11-13T05:33:48;4.80;;;4.20;;
4909;SDS011;2470;49.868;8.660;2022-11-13T05:36:14;6.80;;;5.33;;
4909;SDS011;2470;49.868;8.660;2022-11-13T05:38:41;5.97;;;4.47;;
4909;SDS011;2470;49.868;8.660;2022-11-13T05:41:08;7.33;;;4.53;;
4909;SDS011;2470;49.868;8.660;2022-11-13T05:43:36;6.67;;;4.47;;
4909;SDS011;2470;49.868;8.660;2022-11-13T05:46:13;6.90;;;4.37;;
4909;SDS011;2470;49.868;8.660;2022-11-13T05:48:43;12.63;;;5.60;;
4909;SDS011;2470;49.868;8.660;2022-11-13T05:51:11;5.83;;;4.13;;
4909;SDS011;2470;49.868;8.660;2022-11-13T05:53:57;7.47;;;5.30;;
4909;SDS011;2470;49.868;8.660;2022-11-13T05:56:24;6.37;;;4.23;;
4909;SDS011;2470;49.868;8.660;2022-11-13T05:58:52;6.77;;;5.50;;
4909;SDS011;2470;49.868;8.660;2022-11-13T06:01:19;6.50;;;4.80;;
4909;SDS011;2470;49.868;8.660;2022-11-13T06:03:53;6.67;;;3.67;;
4909;SDS011;2470;49.868;8.660;2022-11-13T06:06:21;4.27;;;3.87;;
4909;SDS011;2470;49.868;8.660;2022-11-13T06:08:47;7.53;;;4.87;;
4909;SDS011;2470;49.868;8.660;2022-11-13T06:11:16;12.20;;;6.00;;
4909;SDS011;2470;49.868;8.660;2022-11-13T06:13:43;12.83;;;8.03;;
4909;SDS011;2470;49.868;8.660;2022-11-13T06:16:10;13.03;;;8.33;;
4909;SDS011;2470;49.868;8.660;2022-11-13T06:18:40;31.13;;;17.10;;
4909;SDS011;2470;49.868;8.660;2022-11-13T06:21:08;27.20;;;12.07;;
4909;SDS011;2470;49.868;8.660;2022-11-13T06:23:36;24.80;;;13.43;;
4909;SDS011;2470;49.868;8.660;2022-11-13T06:26:06;35.83;;;16.07;;
4909;SDS011;2470;49.868;8.660;2022-11-13T06:28:34;14.93;;;8.83;;
4909;SDS011;2470;49.868;8.660;2022-11-13T06:31:03;20.93;;;9.50;;
4909;SDS011;2470;49.868;8.660;2022-11-13T06:33:30;32.83;;;12.43;;
4909;SDS011;2470;49.868;8.660;2022-11-13T06:35:56;26.90;;;10.23;;
4909;SDS011;2470;49.868;8.660;2022-11-13T06:38:22;18.90;;;10.20;;
4909;SDS011;2470;49.868;8.660;2022-11-13T06:40:47;30.50;;;12.20;;
4909;SDS011;2470;49.868;8.660;2022-11-13T06:43:13;24.00;;;11.10;;
4909;SDS011;2470;49.868;8.660;2022-11-13T06:45:38;27.03;;;11.27;;
4909;SDS011;2470;49.868;8.660;2022-11-13T06:48:04;15.43;;;7.07;;
4909;SDS011;2470;49.868;8.660;2022-11-13T06:50:30;14.00;;;7.47;;
4909;SDS011;2470;49.868;8.660;2022-11-13T06:52:55;11.30;;;5.50;;
4909;SDS011;2470;49.868;8.660;2022-11-13T06:55:21;12.20;;;6.23;;
4909;SDS011;2470;49.868;8.660;2022-11-13T06:57:47;11.97;;;5.10;;
4909;SDS011;2470;49.868;8.660;2022-11-13T07:00:12;13.03;;;5.80;;
4909;SDS011;2470;49.868;8.660;2022-11-13T07:02:38;11.40;;;6.50;;
4909;SDS011;2470;49.868;8.660;2022-11-13T07:05:04;10.10;;;6.57;;
4909;SDS011;2470;49.868;8.660;2022-11-13T07:07:29;10.00;;;6.87;;
4909;SDS011;2470;49.868;8.660;2022-11-13T07:09:55;9.27;;;4.77;;
4909;SDS011;2470;49.868;8.660;2022-11-13T07:12:20;11.97;;;8.00;;
4909;SDS011;2470;49.868;8.660;2022-11-13T07:14:46;25.70;;;12.70;;
4909;SDS011;2470;49.868;8.660;2022-11-13T07:17:11;21.30;;;9.90;;
4909;SDS011;2470;49.868;8.660;2022-11-13T07:19:37;12.50;;;7.90;;
4909;SDS011;2470;49.868;8.660;2022-11-13T07:22:02;14.83;;;8.20;;
4909;SDS011;2470;49.868;8.660;2022-11-13T07:24:28;12.30;;;6.87;;
4909;SDS011;2470;49.868;8.660;2022-11-13T07:26:54;14.43;;;8.63;;
4909;SDS011;2470;49.868;8.660;2022-11-13T07:29:19;16.07;;;8.27;;
4909;SDS011;2470;49.868;8.660;2022-11-13T07:31:45;10.40;;;6.47;;
4909;SDS011;2470;49.868;8.660;2022-11-13T07:34:10;11.60;;;6.80;;
4909;SDS011;2470;49.868;8.660;2022-11-13T07:36:36;19.77;;;10.23;;
4909;SDS011;2470;49.868;8.660;2022-11-13T07:39:01;14.67;;;7.27;;
4909;SDS011;2470;49.868;8.660;2022-11-13T07:41:27;14.23;;;7.47;;
4909;SDS011;2470;49.868;8.660;2022-11-13T07:43:52;9.70;;;5.50;;
4909;SDS011;2470;49.868;8.660;2022-11-13T07:46:18;11.80;;;5.27;;
4909;SDS011;2470;49.868;8.660;2022-11-13T07:48:43;6.83;;;4.27;;
4909;SDS011;2470;49.868;8.660;2022-11-13T07:51:09;4.50;;;3.50;;
4909;SDS011;2470;49.868;8.660;2022-11-13T07:53:34;5.57;;;4.47;;
4909;SDS011;2470;49.868;8.660;2022-11-13T07:56:01;6.40;;;4.10;;
4909;SDS011;2470;49.868;8.660;2022-11-13T07:58:27;9.67;;;4.50;;
4909;SDS011;2470;49.868;8.660;2022-11-13T08:00:53;8.67;;;5.43;;
4909;SDS011;2470;49.868;8.660;2022-11-13T08:03:19;6.17;;;4.40;;
4909;SDS011;2470;49.868;8.660;2022-11-13T08:05:45;6.37;;;4.23;;
4909;SDS011;2470;49.868;8.660;2022-11-13T08:08:11;7.97;;;4.47;;
4909;SDS011;2470;49.868;8.660;2022-11-13T08:10:38;8.17;;;3.97;;
4909;SDS011;2470;49.868;8.660;2022-11-13T08:13:04;9.33;;;5.00;;
4909;SDS011;2470;49.868;8.660;2022-11-13T08:15:32;6.47;;;4.87;;
4909;SDS011;2470;49.868;8.660;2022-11-13T08:17:58;8.47;;;4.23;;
4909;SDS011;2470;49.868;8.660;2022-11-13T08:20:25;7.53;;;4.67;;
4909;SDS011;2470;49.868;8.660;2022-11-13T08:22:55;6.97;;;4.43;;
4909;SDS011;2470;49.868;8.660;2022-11-13T08:25:21;7.07;;;4.23;;
4909;SDS011;2470;49.868;8.660;2022-11-13T08:27:47;13.60;;;4.80;;
4909;SDS011;2470;49.868;8.660;2022-11-13T08:30:15;8.23;;;4.87;;
4909;SDS011;2470;49.868;8.660;2022-11-13T08:32:41;12.00;;;4.37;;
4909;SDS011;2470;49.868;8.660;2022-11-13T08:35:07;8.13;;;4.73;;
4909;SDS011;2470;49.868;8.660;2022-11-13T08:37:32;5.13;;;4.43;;
4909;SDS011;2470;49.868;8.660;2022-11-13T08:39:58;8.37;;;4.60;;
4909;SDS011;2470;49.868;8.660;2022-11-13T08:42:23;7.33;;;4.33;;
4909;SDS011;2470;49.868;8.660;2022-11-13T08:44:49;7.00;;;4.73;;
4909;SDS011;2470;49.868;8.660;2022-11-13T08:47:14;6.83;;;4.30;;
4909;SDS011;2470;49.868;8.660;2022-11-13T08:49:40;8.00;;;5.00;;
4909;SDS011;2470;49.868;8.660;2022-11-13T08:52:06;9.60;;;5.40;;
4909;SDS011;2470;49.868;8.660;2022-11-13T08:54:31;9.10;;;5.57;;
4909;SDS011;2470;49.868;8.660;2022-11-13T08:56:57;5.60;;;4.33;;
4909;SDS011;2470;49.868;8.660;2022-11-13T08:59:22;9.10;;;5.77;;
4909;SDS011;2470;49.868;8.660;2022-11-13T09:01:48;10.47;;;5.80;;
4909;SDS011;2470;49.868;8.660;2022-11-13T09:04:14;7.73;;;4.30;;
4909;SDS011;2470;49.868;8.660;2022-11-13T09:06:39;9.63;;;5.40;;
4909;SDS011;2470;49.868;8.660;2022-11-13T09:09:05;29.70;;;9.00;;
4909;SDS011;2470;49.868;8.660;2022-11-13T09:11:31;7.20;;;4.33;;
4909;SDS011;2470;49.868;8.660;2022-11-13T09:13:57;8.77;;;5.37;;
4909;SDS011;2470;49.868;8.660;2022-11-13T09:16:23;9.60;;;6.00;;
4909;SDS011;2470;49.868;8.660;2022-11-13T09:18:49;15.10;;;8.87;;
4909;SDS011;2470;49.868;8.660;2022-11-13T09:21:15;15.03;;;8.00;;
4909;SDS011;2470;49.868;8.660;2022-11-13T09:23:40;14.50;;;7.50;;
4909;SDS011;2470;49.868;8.660;2022-11-13T09:26:06;20.77;;;8.53;;
4909;SDS011;2470;49.868;8.660;2022-11-13T09:28:31;16.50;;;6.33;;
4909;SDS011;2470;49.868;8.660;2022-11-13T09:30:57;13.70;;;8.50;;
4909;SDS011;2470;49.868;8.660;2022-11-13T09:33:23;10.53;;;6.13;;
4909;SDS011;2470;49.868;8.660;2022-11-13T09:35:49;8.73;;;5.47;;
4909;SDS011;2470;49.868;8.660;2022-11-13T09:38:14;12.37;;;7.53;;
4909;SDS011;2470;49.868;8.660;2022-11-13T09:40:51;14.50;;;6.40;;
4909;SDS011;2470;49.868;8.660;2022-11-13T09:45:44;8.13;;;4.97;;
4909;SDS011;2470;49.868;8.660;2022-11-13T09:48:11;12.23;;;5.80;;
4909;SDS011;2470;49.868;8.660;2022-11-13T09:51:16;11.30;;;7.40;;
4909;SDS011;2470;49.868;8.660;2022-11-13T09:53:45;5.30;;;4.80;;
4909;SDS011;2470;49.868;8.660;2022-11-13T09:56:14;8.80;;;6.40;;
4909;SDS011;2470;49.868;8.660;2022-11-13T09:58:52;8.33;;;5.33;;
4909;SDS011;2470;49.868;8.660;2022-11-13T10:01:48;5.37;;;4.67;;
4909;SDS011;2470;49.868;8.660;2022-11-13T10:07:41;9.00;;;5.23;;
4909;SDS011;2470;49.868;8.660;2022-11-13T10:10:22;7.93;;;4.43;;
4909;SDS011;2470;49.868;8.660;2022-11-13T10:13:09;10.53;;;5.67;;
4909;SDS011;2470;49.868;8.660;2022-11-13T10:15:38;5.70;;;4.67;;
4909;SDS011;2470;49.868;8.660;2022-11-13T10:18:10;7.87;;;4.60;;
4909;SDS011;2470;49.868;8.660;2022-11-13T10:20:50;7.47;;;4.53;;
4909;SDS011;2470;49.868;8.660;2022-11-13T10:23:26;7.20;;;4.80;;
4909;SDS011;2470;49.868;8.660;2022-11-13T10:25:55;11.13;;;5.97;;
4909;SDS011;2470;49.868;8.660;2022-11-13T10:28:25;7.80;;;5.23;;
4909;SDS011;2470;49.868;8.660;2022-11-13T10:30:51;12.83;;;6.20;;
4909;SDS011;2470;49.868;8.660;2022-11-13T10:33:18;6.93;;;5.23;;
4909;SDS011;2470;49.868;8.660;2022-11-13T10:35:47;9.20;;;4.97;;
4909;SDS011;2470;49.868;8.660;2022-11-13T10:38:24;6.20;;;4.47;;
4909;SDS011;2470;49.868;8.660;2022-11-13T10:41:05;8.07;;;5.30;;
4909;SDS011;2470;49.868;8.660;2022-11-13T10:43:47;11.00;;;4.90;;
4909;SDS011;2470;49.868;8.660;2022-11-13T10:46:20;5.77;;;4.40;;
4909;SDS011;2470;49.868;8.660;2022-11-13T10:48:48;11.00;;;4.90;;
4909;SDS011;2470;49.868;8.660;2022-11-13T10:51:19;13.50;;;5.13;;
4909;SDS011;2470;49.868;8.660;2022-11-13T10:53:49;5.40;;;4.27;;
4909;SDS011;2470;49.868;8.660;2022-11-13T10:56:28;9.03;;;4.70;;
4909;SDS011;2470;49.868;8.660;2022-11-13T11:01:37;7.27;;;5.40;;
4909;SDS011;2470;49.868;8.660;2022-11-13T11:04:09;6.80;;;4.33;;
4909;SDS011;2470;49.868;8.660;2022-11-13T11:07:02;10.83;;;5.17;;
4909;SDS011;2470;49.868;8.660;2022-11-13T11:09:36;8.13;;;4.63;;
4909;SDS011;2470;49.868;8.660;2022-11-13T11:17:14;13.03;;;6.27;;
4909;SDS011;2470;49.868;8.660;2022-11-13T11:19:46;10.47;;;5.50;;
4909;SDS011;2470;49.868;8.660;2022-11-13T11:22:26;13.93;;;6.20;;
4909;SDS011;2470;49.868;8.660;2022-11-13T11:25:00;25.70;;;11.33;;
4909;SDS011;2470;49.868;8.660;2022-11-13T11:33:08;9.63;;;5.93;;
4909;SDS011;2470;49.868;8.660;2022-11-13T11:35:45;10.43;;;5.80;;
4909;SDS011;2470;49.868;8.660;2022-11-13T11:41:07;8.73;;;4.47;;
4909;SDS011;2470;49.868;8.660;2022-11-13T11:43:41;13.00;;;6.50;;
4909;SDS011;2470;49.868;8.660;2022-11-13T11:46:20;7.33;;;3.53;;
4909;SDS011;2470;49.868;8.660;2022-11-13T11:48:48;10.43;;;5.03;;
4909;SDS011;2470;49.868;8.660;2022-11-13T11:51:25;8.70;;;4.72;;
4909;SDS011;2470;49.868;8.660;2022-11-13T11:56:56;21.88;;;9.23;;
4909;SDS011;2470;49.868;8.660;2022-11-13T12:05:10;8.23;;;4.28;;
4909;SDS011;2470;49.868;8.660;2022-11-13T12:08:10;14.98;;;6.38;;
4909;SDS011;2470;49.868;8.660;2022-11-13T12:13:29;3.90;;;2.80;;
4909;SDS011;2470;49.868;8.660;2022-11-13T12:26:59;12.48;;;5.60;;
4909;SDS011;2470;49.868;8.660;2022-11-13T12:29:47;3.65;;;2.88;;
4909;SDS011;2470;49.868;8.660;2022-11-13T12:35:37;4.18;;;2.75;;
4909;SDS011;2470;49.868;8.660;2022-11-13T12:43:40;4.40;;;3.25;;
4909;SDS011;2470;49.868;8.660;2022-11-13T12:46:10;10.52;;;4.88;;
4909;SDS011;2470;49.868;8.660;2022-11-13T12:48:38;6.93;;;3.35;;
4909;SDS011;2470;49.868;8.660;2022-11-13T12:51:06;5.85;;;3.63;;
4909;SDS011;2470;49.868;8.660;2022-11-13T12:53:47;19.45;;;6.47;;
4909;SDS011;2470;49.868;8.660;2022-11-13T13:01:41;10.90;;;5.55;;
4909;SDS011;2470;49.868;8.660;2022-11-13T13:16:18;2.17;;;2.03;;
4909;SDS011;2470;49.868;8.660;2022-11-13T13:18:47;4.30;;;3.10;;
4909;SDS011;2470;49.868;8.660;2022-11-13T13:21:14;4.72;;;3.38;;
4909;SDS011;2470;49.868;8.660;2022-11-13T13:23:43;6.70;;;3.53;;
4909;SDS011;2470;49.868;8.660;2022-11-13T13:26:15;3.42;;;2.22;;
4909;SDS011;2470;49.868;8.660;2022-11-13T13:28:51;2.45;;;2.13;;
4909;SDS011;2470;49.868;8.660;2022-11-13T13:39:52;2.20;;;2.05;;
4909;SDS011;2470;49.868;8.660;2022-11-13T13:47:50;1.58;;;1.48;;
4909;SDS011;2470;49.868;8.660;2022-11-13T13:50:23;2.05;;;1.92;;
4909;SDS011;2470;49.868;8.660;2022-11-13T13:52:51;2.55;;;2.22;;
4909;SDS011;2470;49.868;8.660;2022-11-13T13:55:20;3.15;;;2.63;;
4909;SDS011;2470;49.868;8.660;2022-11-13T13:57:51;2.75;;;2.50;;
4909;SDS011;2470;49.868;8.660;2022-11-13T14:00:18;4.68;;;3.42;;
4909;SDS011;2470;49.868;8.660;2022-11-13T14:02:45;15.18;;;8.23;;
4909;SDS011;2470;49.868;8.660;2022-11-13T14:05:23;3.20;;;2.50;;
4909;SDS011;2470;49.868;8.660;2022-11-13T14:07:49;3.40;;;2.80;;
4909;SDS011;2470;49.868;8.660;2022-11-13T14:10:16;2.80;;;2.33;;
4909;SDS011;2470;49.868;8.660;2022-11-13T14:12:44;5.20;;;2.55;;
4909;SDS011;2470;49.868;8.660;2022-11-13T14:15:30;7.53;;;3.97;;
4909;SDS011;2470;49.868;8.660;2022-11-13T14:20:50;4.60;;;2.97;;
4909;SDS011;2470;49.868;8.660;2022-11-13T14:23:19;4.78;;;3.45;;
4909;SDS011;2470;49.868;8.660;2022-11-13T14:25:51;4.53;;;3.13;;
4909;SDS011;2470;49.868;8.660;2022-11-13T14:28:19;4.80;;;3.08;;
4909;SDS011;2470;49.868;8.660;2022-11-13T14:30:53;6.63;;;4.00;;
4909;SDS011;2470;49.868;8.660;2022-11-13T14:33:27;3.97;;;2.83;;
4909;SDS011;2470;49.868;8.660;2022-11-13T14:36:03;4.20;;;2.92;;
4909;SDS011;2470;49.868;8.660;2022-11-13T14:38:30;4.20;;;2.72;;
4909;SDS011;2470;49.868;8.660;2022-11-13T14:41:00;4.00;;;2.70;;
4909;SDS011;2470;49.868;8.660;2022-11-13T14:43:30;5.43;;;3.25;;
4909;SDS011;2470;49.868;8.660;2022-11-13T14:45:58;4.82;;;3.60;;
4909;SDS011;2470;49.868;8.660;2022-11-13T14:48:26;4.70;;;3.10;;
4909;SDS011;2470;49.868;8.660;2022-11-13T14:50:58;5.18;;;3.40;;
4909;SDS011;2470;49.868;8.660;2022-11-13T14:53:30;3.22;;;2.92;;
4909;SDS011;2470;49.868;8.660;2022-11-13T14:55:57;4.32;;;2.72;;
4909;SDS011;2470;49.868;8.660;2022-11-13T14:58:35;4.07;;;2.65;;
4909;SDS011;2470;49.868;8.660;2022-11-13T15:01:16;5.13;;;3.03;;
4909;SDS011;2470;49.868;8.660;2022-11-13T15:03:47;3.15;;;2.53;;
4909;SDS011;2470;49.868;8.660;2022-11-13T15:08:45;5.07;;;3.53;;
4909;SDS011;2470;49.868;8.660;2022-11-13T15:11:12;4.55;;;2.90;;
4909;SDS011;2470;49.868;8.660;2022-11-13T15:13:39;4.32;;;2.85;;
4909;SDS011;2470;49.868;8.660;2022-11-13T15:16:05;5.43;;;2.80;;
4909;SDS011;2470;49.868;8.660;2022-11-13T15:18:33;3.78;;;2.78;;
4909;SDS011;2470;49.868;8.660;2022-11-13T15:20:59;5.43;;;2.33;;
4909;SDS011;2470;49.868;8.660;2022-11-13T15:23:25;3.27;;;2.60;;
4909;SDS011;2470;49.868;8.660;2022-11-13T15:25:52;3.27;;;2.50;;
4909;SDS011;2470;49.868;8.660;2022-11-13T15:28:18;4.20;;;3.03;;
4909;SDS011;2470;49.868;8.660;2022-11-13T15:30:44;5.60;;;3.13;;
4909;SDS011;2470;49.868;8.660;2022-11-13T15:33:11;7.03;;;3.20;;
4909;SDS011;2470;49.868;8.660;2022-11-13T15:35:39;7.17;;;3.93;;
4909;SDS011;2470;49.868;8.660;2022-11-13T15:38:08;4.20;;;2.90;;
4909;SDS011;2470;49.868;8.660;2022-11-13T15:40:34;5.80;;;3.47;;
4909;SDS011;2470;49.868;8.660;2022-11-13T15:43:01;5.07;;;2.60;;
4909;SDS011;2470;49.868;8.660;2022-11-13T15:45:27;5.20;;;3.43;;
4909;SDS011;2470;49.868;8.660;2022-11-13T15:47:52;4.23;;;3.33;;
4909;SDS011;2470;49.868;8.660;2022-11-13T15:50:18;4.70;;;3.63;;
4909;SDS011;2470;49.868;8.660;2022-11-13T15:52:44;5.73;;;3.13;;
4909;SDS011;2470;49.868;8.660;2022-11-13T15:55:17;5.23;;;3.00;;
4909;SDS011;2470;49.868;8.660;2022-11-13T15:57:48;8.37;;;3.20;;
4909;SDS011;2470;49.868;8.660;2022-11-13T16:00:15;5.60;;;3.30;;
4909;SDS011;2470;49.868;8.660;2022-11-13T16:02:42;3.10;;;2.80;;
4909;SDS011;2470;49.868;8.660;2022-11-13T16:05:08;5.40;;;3.27;;
4909;SDS011;2470;49.868;8.660;2022-11-13T16:07:34;8.80;;;4.67;;
4909;SDS011;2470;49.868;8.660;2022-11-13T16:09:59;6.77;;;4.03;;
4909;SDS011;2470;49.868;8.660;2022-11-13T16:12:25;5.47;;;3.77;;
4909;SDS011;2470;49.868;8.660;2022-11-13T16:14:50;7.03;;;4.13;;
4909;SDS011;2470;49.868;8.660;2022-11-13T16:17:16;10.10;;;5.70;;
4909;SDS011;2470;49.868;8.660;2022-11-13T16:19:45;16.90;;;7.20;;
4909;SDS011;2470;49.868;8.660;2022-11-13T16:22:17;19.00;;;9.20;;
4909;SDS011;2470;49.868;8.660;2022-11-13T16:24:44;20.27;;;8.67;;
4909;SDS011;2470;49.868;8.660;2022-11-13T16:27:12;24.90;;;9.77;;
4909;SDS011;2470;49.868;8.660;2022-11-13T16:29:40;25.63;;;12.50;;
4909;SDS011;2470;49.868;8.660;2022-11-13T16:32:14;18.90;;;9.80;;
4909;SDS011;2470;49.868;8.660;2022-11-13T16:34:41;23.53;;;10.43;;
4909;SDS011;2470;49.868;8.660;2022-11-13T16:37:14;22.00;;;11.33;;
4909;SDS011;2470;49.868;8.660;2022-11-13T16:39:42;28.60;;;11.20;;
4909;SDS011;2470;49.868;8.660;2022-11-13T16:42:09;18.57;;;8.80;;
4909;SDS011;2470;49.868;8.660;2022-11-13T16:44:35;10.70;;;5.80;;
4909;SDS011;2470;49.868;8.660;2022-11-13T16:47:00;13.10;;;6.47;;
4909;SDS011;2470;49.868;8.660;2022-11-13T16:49:26;9.80;;;4.40;;